createdAt,value
2017-09-03T00:02:01.716Z,12.80
2017-09-03T00:04:30.043Z,12.80
2017-09-03T00:07:00.267Z,12.80
2017-09-03T00:09:29.150Z,12.80
2017-09-03T00:11:58.045Z,12.70
2017-09-03T00:14:26.377Z,12.70
2017-09-03T00:16:54.943Z,12.60
2017-09-03T00:19:23.313Z,12.60
2017-09-03T00:21:51.611Z,12.50
2017-09-03T00:24:20.072Z,12.50
2017-09-03T00:26:48.411Z,12.50
2017-09-03T00:29:16.744Z,12.60
2017-09-03T00:31:45.053Z,12.60
2017-09-03T00:34:13.380Z,12.50
2017-09-03T00:36:41.694Z,12.60
2017-09-03T00:39:10.033Z,12.60
2017-09-03T00:41:38.341Z,12.60
2017-09-03T00:44:06.727Z,12.60
2017-09-03T00:46:35.583Z,12.50
2017-09-03T00:49:03.948Z,12.50
2017-09-03T00:51:32.258Z,12.50
2017-09-03T00:54:00.584Z,12.50
2017-09-03T00:56:28.983Z,12.50
2017-09-03T00:58:57.955Z,12.40
2017-09-03T01:01:26.312Z,12.40
2017-09-03T01:03:54.622Z,12.40
2017-09-03T01:06:23.511Z,12.40
2017-09-03T01:08:51.821Z,12.40
2017-09-03T01:11:20.135Z,12.40
2017-09-03T01:13:48.462Z,12.40
2017-09-03T01:16:17.818Z,12.30
2017-09-03T01:18:46.767Z,12.30
2017-09-03T01:21:15.078Z,12.30
2017-09-03T01:23:43.378Z,12.30
2017-09-03T01:26:11.914Z,12.30
2017-09-03T01:28:40.311Z,12.30
2017-09-03T01:31:08.889Z,12.30
2017-09-03T01:33:37.250Z,12.30
2017-09-03T01:36:05.586Z,12.30
2017-09-03T01:38:33.919Z,12.30
2017-09-03T01:41:03.039Z,12.40
2017-09-03T01:43:31.345Z,12.40
2017-09-03T01:45:59.695Z,12.40
2017-09-03T01:48:28.079Z,12.50
2017-09-03T01:50:56.383Z,12.50
2017-09-03T01:53:24.750Z,12.50
2017-09-03T01:55:53.188Z,12.50
2017-09-03T01:58:21.491Z,12.50
2017-09-03T02:00:49.844Z,12.60
2017-09-03T02:03:18.142Z,12.60
2017-09-03T02:05:46.495Z,12.60
2017-09-03T02:08:15.246Z,12.50
2017-09-03T02:10:43.740Z,12.50
2017-09-03T02:13:12.078Z,12.40
2017-09-03T02:15:40.489Z,12.50
2017-09-03T02:18:08.830Z,12.50
2017-09-03T02:20:37.683Z,12.40
2017-09-03T02:23:06.002Z,12.50
2017-09-03T02:25:34.723Z,12.50
2017-09-03T02:28:03.030Z,12.50
2017-09-03T02:30:31.429Z,12.50
2017-09-03T02:32:59.727Z,12.50
2017-09-03T02:35:28.031Z,12.50
2017-09-03T02:37:56.790Z,12.40
2017-09-03T02:40:25.126Z,12.40
2017-09-03T02:42:53.436Z,12.50
2017-09-03T02:45:21.773Z,12.50
2017-09-03T02:47:50.073Z,12.50
2017-09-03T02:50:22.445Z,12.50
2017-09-03T02:52:50.757Z,12.50
2017-09-03T02:55:20.075Z,12.50
2017-09-03T02:57:48.422Z,12.50
2017-09-03T03:00:16.731Z,12.50
2017-09-03T03:02:45.064Z,12.50
2017-09-03T03:05:13.396Z,12.50
2017-09-03T03:07:41.719Z,12.50
2017-09-03T03:10:10.238Z,12.50
2017-09-03T03:12:38.559Z,12.50
2017-09-03T03:15:06.858Z,12.50
2017-09-03T03:17:35.185Z,12.40
2017-09-03T03:20:03.517Z,12.40
2017-09-03T03:22:31.857Z,12.30
2017-09-03T03:25:00.322Z,12.30
2017-09-03T03:27:28.732Z,12.20
2017-09-03T03:29:57.059Z,12.20
2017-09-03T03:32:25.353Z,12.10
2017-09-03T03:34:53.685Z,12.10
2017-09-03T03:37:21.992Z,12.10
2017-09-03T03:39:52.439Z,12.10
2017-09-03T03:42:20.847Z,12.10
2017-09-03T03:44:49.429Z,12.00
2017-09-03T03:47:17.770Z,12.00
2017-09-03T03:49:46.931Z,12.00
2017-09-03T03:52:15.235Z,11.90
2017-09-03T03:54:43.562Z,11.90
2017-09-03T03:57:11.905Z,11.90
2017-09-03T03:59:40.249Z,11.90
2017-09-03T04:02:08.567Z,11.80
2017-09-03T04:04:37.362Z,11.80
2017-09-03T04:07:05.697Z,11.90
2017-09-03T04:09:34.023Z,11.80
2017-09-03T04:12:02.384Z,11.80
2017-09-03T04:14:30.699Z,11.80
2017-09-03T04:16:59.023Z,11.80
2017-09-03T04:19:27.372Z,11.70
2017-09-03T04:21:55.674Z,11.70
2017-09-03T04:24:23.973Z,11.70
2017-09-03T04:26:52.317Z,11.70
2017-09-03T04:29:20.617Z,11.60
2017-09-03T04:31:48.961Z,11.60
2017-09-03T04:34:17.279Z,11.60
2017-09-03T04:36:45.608Z,11.60
2017-09-03T04:39:13.957Z,11.60
2017-09-03T04:41:42.269Z,11.60
2017-09-03T04:44:10.574Z,11.60
2017-09-03T04:46:38.893Z,11.60
2017-09-03T04:49:07.265Z,11.60
2017-09-03T04:51:35.600Z,11.60
2017-09-03T04:54:03.899Z,11.60
2017-09-03T04:56:32.331Z,11.60
2017-09-03T04:59:00.650Z,11.60
2017-09-03T05:01:28.959Z,11.60
2017-09-03T05:03:57.298Z,11.60
2017-09-03T05:06:25.756Z,11.60
2017-09-03T05:08:54.049Z,11.60
2017-09-03T05:11:23.080Z,11.60
2017-09-03T05:13:51.466Z,11.70
2017-09-03T05:16:20.044Z,11.80
2017-09-03T05:18:48.374Z,11.80
2017-09-03T05:21:16.672Z,12.00
2017-09-03T05:26:48.530Z,12.10
2017-09-03T05:29:18.091Z,12.10
2017-09-03T05:31:46.453Z,12.00
2017-09-03T05:34:14.770Z,12.00
2017-09-03T05:36:43.114Z,12.10
2017-09-03T05:39:11.450Z,12.10
2017-09-03T05:41:39.769Z,12.10
2017-09-03T05:44:08.363Z,12.00
2017-09-03T05:46:36.752Z,11.80
2017-09-03T05:49:05.194Z,11.70
2017-09-03T05:51:33.541Z,11.70
2017-09-03T05:54:02.819Z,11.80
2017-09-03T05:56:31.118Z,11.80
2017-09-03T05:59:00.320Z,11.80
2017-09-03T06:01:28.636Z,11.80
2017-09-03T06:03:56.968Z,11.80
2017-09-03T06:06:26.027Z,11.90
2017-09-03T06:08:54.428Z,11.90
2017-09-03T06:11:22.735Z,12.00
2017-09-03T06:13:51.081Z,12.00
2017-09-03T06:16:20.769Z,12.00
2017-09-03T06:18:49.183Z,12.10
2017-09-03T06:21:18.323Z,12.20
2017-09-03T06:23:46.652Z,12.20
2017-09-03T06:26:14.950Z,12.20
2017-09-03T06:28:43.305Z,12.20
2017-09-03T06:31:11.600Z,12.10
2017-09-03T06:33:39.894Z,12.00
2017-09-03T06:36:08.231Z,12.00
2017-09-03T06:38:36.566Z,12.10
2017-09-03T06:41:04.905Z,12.10
2017-09-03T06:43:34.089Z,12.10
2017-09-03T06:46:02.427Z,12.20
2017-09-03T06:48:30.774Z,12.20
2017-09-03T06:50:59.078Z,12.30
2017-09-03T06:53:27.431Z,12.40
2017-09-03T06:55:55.779Z,12.50
2017-09-03T06:58:24.106Z,12.50
2017-09-03T07:00:52.411Z,12.70
2017-09-03T07:03:20.787Z,12.80
2017-09-03T07:05:49.123Z,12.90
2017-09-03T07:08:21.241Z,12.90
2017-09-03T07:10:49.566Z,13.00
2017-09-03T07:13:18.619Z,13.00
2017-09-03T07:15:47.627Z,13.10
2017-09-03T07:21:01.852Z,13.00
2017-09-03T07:23:30.192Z,13.00
2017-09-03T07:25:58.611Z,13.00
2017-09-03T07:28:27.187Z,13.10
2017-09-03T07:30:55.545Z,13.20
2017-09-03T07:33:23.891Z,13.30
2017-09-03T07:35:52.267Z,13.30
2017-09-03T07:38:20.592Z,13.40
2017-09-03T07:40:49.820Z,13.40
2017-09-03T07:43:18.826Z,13.30
2017-09-03T07:45:47.248Z,13.20
2017-09-03T07:48:15.565Z,13.20
2017-09-03T07:50:44.181Z,13.30
2017-09-03T07:53:12.550Z,13.30
2017-09-03T07:55:40.926Z,13.40
2017-09-03T07:58:09.522Z,13.60
2017-09-03T08:00:37.834Z,13.70
2017-09-03T08:03:07.168Z,13.70
2017-09-03T08:05:36.487Z,13.70
2017-09-03T08:08:04.860Z,13.70
2017-09-03T08:10:33.167Z,13.80
2017-09-03T08:13:01.469Z,14.00
2017-09-03T08:15:29.854Z,14.10
2017-09-03T08:17:58.149Z,14.10
2017-09-03T08:20:26.499Z,14.20
2017-09-03T08:22:54.811Z,14.10
2017-09-03T08:25:23.145Z,14.10
2017-09-03T08:27:51.478Z,14.20
2017-09-03T08:30:19.816Z,14.50
2017-09-03T08:32:48.161Z,14.80
2017-09-03T08:35:16.483Z,15.20
2017-09-03T08:37:44.785Z,15.40
2017-09-03T08:40:13.136Z,15.50
2017-09-03T08:42:41.436Z,15.60
2017-09-03T08:45:09.789Z,15.50
2017-09-03T08:47:38.086Z,15.70
2017-09-03T08:50:06.386Z,16.00
2017-09-03T08:52:34.721Z,16.00
2017-09-03T08:55:03.041Z,16.10
2017-09-03T08:57:31.395Z,16.50
2017-09-03T08:59:59.709Z,17.00
2017-09-03T09:02:28.083Z,17.50
2017-09-03T09:04:56.417Z,18.00
2017-09-03T09:07:24.750Z,18.60
2017-09-03T09:09:53.133Z,19.10
2017-09-03T09:12:21.430Z,19.60
2017-09-03T09:14:49.732Z,19.50
2017-09-03T09:17:18.069Z,19.50
2017-09-03T09:19:46.394Z,19.50
2017-09-03T09:22:19.696Z,19.60
2017-09-03T09:24:47.987Z,19.90
2017-09-03T09:27:16.347Z,20.10
2017-09-03T09:29:46.655Z,20.60
2017-09-03T09:32:14.981Z,21.20
2017-09-03T09:34:43.444Z,21.40
2017-09-03T09:37:18.901Z,21.60
2017-09-03T09:39:47.253Z,21.50
2017-09-03T09:42:15.581Z,21.70
2017-09-03T09:44:45.520Z,21.00
2017-09-03T09:47:13.857Z,20.90
2017-09-03T09:49:42.189Z,20.70
2017-09-03T09:52:10.498Z,20.80
2017-09-03T09:54:38.833Z,21.10
2017-09-03T09:57:07.137Z,21.70
2017-09-03T09:59:35.446Z,22.50
2017-09-03T10:02:03.775Z,22.90
2017-09-03T10:04:32.070Z,23.10
2017-09-03T10:07:00.403Z,23.30
2017-09-03T10:09:28.736Z,23.20
2017-09-03T10:11:57.072Z,23.40
2017-09-03T10:14:25.435Z,23.20
2017-09-03T10:16:53.770Z,23.10
2017-09-03T10:19:22.105Z,23.00
2017-09-03T10:21:50.418Z,22.80
2017-09-03T10:24:18.738Z,22.70
2017-09-03T10:26:47.078Z,22.60
2017-09-03T10:29:15.384Z,22.30
2017-09-03T10:31:44.756Z,22.10
2017-09-03T10:34:13.330Z,21.90
2017-09-03T10:36:41.678Z,21.90
2017-09-03T10:39:10.005Z,21.90
2017-09-03T10:41:38.317Z,21.90
2017-09-03T10:44:06.685Z,21.80
2017-09-03T10:46:34.985Z,21.80
2017-09-03T10:49:03.306Z,22.00
2017-09-03T10:51:31.627Z,22.40
2017-09-03T10:53:59.962Z,22.60
2017-09-03T10:56:28.290Z,22.60
2017-09-03T10:58:56.640Z,22.30
2017-09-03T11:01:25.025Z,22.00
2017-09-03T11:03:53.343Z,22.40
2017-09-03T11:06:21.662Z,22.70
2017-09-03T11:08:49.970Z,22.70
2017-09-03T11:11:18.296Z,22.70
2017-09-03T11:13:46.681Z,22.70
2017-09-03T11:16:15.040Z,23.00
2017-09-03T11:18:43.378Z,23.20
2017-09-03T11:21:11.710Z,23.30
2017-09-03T11:23:40.003Z,23.40
2017-09-03T11:26:08.298Z,23.30
2017-09-03T11:28:36.657Z,22.80
2017-09-03T11:31:04.963Z,23.20
2017-09-03T11:33:33.269Z,23.20
2017-09-03T11:36:01.591Z,22.80
2017-09-03T11:38:29.943Z,23.00
2017-09-03T11:40:58.377Z,22.80
2017-09-03T11:43:26.983Z,23.00
2017-09-03T11:45:55.289Z,23.20
2017-09-03T11:48:23.672Z,23.30
2017-09-03T11:50:52.103Z,23.60
2017-09-03T11:53:20.538Z,23.60
2017-09-03T11:55:48.882Z,23.50
2017-09-03T11:58:17.169Z,23.00
2017-09-03T12:00:45.480Z,22.80
2017-09-03T12:03:13.816Z,22.70
2017-09-03T12:05:42.138Z,22.60
2017-09-03T12:08:10.502Z,22.50
2017-09-03T12:10:38.809Z,22.50
2017-09-03T12:13:07.146Z,22.50
2017-09-03T12:15:35.658Z,22.40
2017-09-03T12:18:04.011Z,22.20
2017-09-03T12:20:32.385Z,22.00
2017-09-03T12:23:00.684Z,21.90
2017-09-03T12:25:29.806Z,22.10
2017-09-03T12:27:58.167Z,22.40
2017-09-03T12:30:26.479Z,22.60
2017-09-03T12:32:54.845Z,22.70
2017-09-03T12:35:23.173Z,22.80
2017-09-03T12:37:51.514Z,22.90
2017-09-03T12:40:19.868Z,22.60
2017-09-03T12:42:53.515Z,22.30
2017-09-03T12:45:24.174Z,22.20
2017-09-03T12:47:52.635Z,22.10
2017-09-03T12:50:21.741Z,22.00
2017-09-03T12:52:50.091Z,21.90
2017-09-03T12:55:18.433Z,21.60
2017-09-03T12:57:46.751Z,21.40
2017-09-03T13:00:15.116Z,21.30
2017-09-03T13:02:43.461Z,21.20
2017-09-03T13:05:11.757Z,21.10
2017-09-03T13:07:40.129Z,21.00
2017-09-03T13:10:08.463Z,20.90
2017-09-03T13:12:36.803Z,20.90
2017-09-03T13:15:05.147Z,20.80
2017-09-03T13:17:33.465Z,20.90
2017-09-03T13:20:01.770Z,20.80
2017-09-03T13:22:30.116Z,20.70
2017-09-03T13:24:58.425Z,20.70
2017-09-03T13:27:26.735Z,20.70
2017-09-03T13:29:55.079Z,20.70
2017-09-03T13:32:23.382Z,20.70
2017-09-03T13:34:51.725Z,20.50
2017-09-03T13:37:20.019Z,20.60
2017-09-03T13:39:48.395Z,20.50
2017-09-03T13:42:16.695Z,20.30
2017-09-03T13:44:44.995Z,20.20
2017-09-03T13:47:13.342Z,20.00
2017-09-03T13:49:41.763Z,19.90
2017-09-03T13:52:10.066Z,19.90
2017-09-03T13:54:38.422Z,20.00
2017-09-03T13:57:06.729Z,19.80
2017-09-03T13:59:35.054Z,19.80
2017-09-03T14:02:03.364Z,19.80
2017-09-03T14:04:31.700Z,19.70
2017-09-03T14:07:00.002Z,19.80
2017-09-03T14:09:28.348Z,20.10
2017-09-03T14:11:56.685Z,20.50
2017-09-03T14:14:24.992Z,20.90
2017-09-03T14:16:54.152Z,21.60
2017-09-03T14:19:22.465Z,21.60
2017-09-03T14:21:50.835Z,21.80
2017-09-03T14:24:19.276Z,21.80
2017-09-03T14:26:47.597Z,22.20
2017-09-03T14:29:15.925Z,22.80
2017-09-03T14:31:44.247Z,22.60
2017-09-03T14:34:12.644Z,22.60
2017-09-03T14:36:40.966Z,22.90
2017-09-03T14:39:09.309Z,23.00
2017-09-03T14:41:37.680Z,22.80
2017-09-03T14:44:05.972Z,22.60
2017-09-03T14:46:34.322Z,22.50
2017-09-03T14:49:02.689Z,22.20
2017-09-03T14:51:31.018Z,22.00
2017-09-03T14:53:59.329Z,21.70
2017-09-03T14:56:27.665Z,21.50
2017-09-03T14:58:56.014Z,21.40
2017-09-03T15:01:24.333Z,21.00
2017-09-03T15:03:52.638Z,20.90
2017-09-03T15:06:20.965Z,20.80
2017-09-03T15:08:49.289Z,20.60
2017-09-03T15:11:17.620Z,20.60
2017-09-03T15:13:45.985Z,20.60
2017-09-03T15:16:14.345Z,20.60
2017-09-03T15:18:42.654Z,20.40
2017-09-03T15:21:10.997Z,20.40
2017-09-03T15:23:39.301Z,20.30
2017-09-03T15:26:07.603Z,20.20
2017-09-03T15:28:35.950Z,20.20
2017-09-03T15:31:04.343Z,20.20
2017-09-03T15:33:32.638Z,20.30
2017-09-03T15:36:00.988Z,20.20
2017-09-03T15:38:29.307Z,20.20
2017-09-03T15:40:57.610Z,20.20
2017-09-03T15:43:25.960Z,20.10
2017-09-03T15:45:54.253Z,20.20
2017-09-03T15:48:22.553Z,20.20
2017-09-03T15:50:50.891Z,20.30
2017-09-03T15:53:19.194Z,20.30
2017-09-03T15:55:47.485Z,20.20
2017-09-03T15:58:15.833Z,20.20
2017-09-03T16:00:44.148Z,20.10
2017-09-03T16:03:12.448Z,20.10
2017-09-03T16:05:40.789Z,20.00
2017-09-03T16:08:09.080Z,20.00
2017-09-03T16:10:37.403Z,19.90
2017-09-03T16:13:05.723Z,20.00
2017-09-03T16:15:34.051Z,20.00
2017-09-03T16:18:02.380Z,20.00
2017-09-03T16:20:30.674Z,20.00
2017-09-03T16:22:59.013Z,20.00
2017-09-03T16:25:27.402Z,20.00
2017-09-03T16:27:55.755Z,19.90
2017-09-03T16:30:24.060Z,19.90
2017-09-03T16:32:52.358Z,19.90
2017-09-03T16:35:20.678Z,19.80
2017-09-03T16:37:48.981Z,19.80
2017-09-03T16:40:17.315Z,19.80
2017-09-03T16:42:45.978Z,19.90
2017-09-03T16:45:14.554Z,19.90
2017-09-03T16:47:42.873Z,19.90
2017-09-03T16:50:11.205Z,19.90
2017-09-03T16:52:39.529Z,19.80
2017-09-03T16:55:07.858Z,19.80
2017-09-03T16:57:36.172Z,19.70
2017-09-03T17:00:04.493Z,19.70
2017-09-03T17:02:32.822Z,19.60
2017-09-03T17:05:01.182Z,19.50
2017-09-03T17:07:29.476Z,19.50
2017-09-03T17:09:57.934Z,19.50
2017-09-03T17:12:26.266Z,19.40
2017-09-03T17:14:54.559Z,19.30
2017-09-03T17:17:22.878Z,19.20
2017-09-03T17:19:51.170Z,19.10
2017-09-03T17:22:19.488Z,19.00
2017-09-03T17:24:47.817Z,18.90
2017-09-03T17:27:16.120Z,18.80
2017-09-03T17:29:44.443Z,18.80
2017-09-03T17:32:12.736Z,18.70
2017-09-03T17:34:55.961Z,18.60
2017-09-03T17:37:26.575Z,18.50
2017-09-03T17:39:55.805Z,18.40
2017-09-03T17:42:28.072Z,18.30
2017-09-03T17:44:56.401Z,18.30
2017-09-03T17:47:24.700Z,18.20
2017-09-03T17:49:53.030Z,18.10
2017-09-03T17:52:22.151Z,17.90
2017-09-03T17:54:50.477Z,17.90
2017-09-03T17:57:18.805Z,17.90
2017-09-03T17:59:47.111Z,17.80
2017-09-03T18:02:15.434Z,17.70
2017-09-03T18:04:54.110Z,17.60
2017-09-03T18:07:22.444Z,17.50
2017-09-03T18:09:50.739Z,17.40
2017-09-03T18:12:19.070Z,17.30
2017-09-03T18:14:47.401Z,17.20
2017-09-03T18:17:15.694Z,17.10
2017-09-03T18:19:44.013Z,17.00
2017-09-03T18:22:12.309Z,17.00
2017-09-03T18:24:40.670Z,16.90
2017-09-03T18:27:09.008Z,16.80
2017-09-03T18:29:40.222Z,16.80
2017-09-03T18:32:08.546Z,16.70
2017-09-03T18:34:36.888Z,16.70
2017-09-03T18:50:28.761Z,16.40
2017-09-03T18:52:57.374Z,16.30
2017-09-03T18:55:27.359Z,16.20
2017-09-03T18:58:01.229Z,16.10
2017-09-03T19:00:31.477Z,15.90
2017-09-03T19:02:59.802Z,15.90
2017-09-03T19:05:31.448Z,15.80
2017-09-03T19:07:59.741Z,15.80
2017-09-03T19:10:28.092Z,15.70
2017-09-03T19:12:56.386Z,15.60
2017-09-03T19:15:24.686Z,15.60
2017-09-03T19:17:53.021Z,15.60
2017-09-03T19:20:21.363Z,15.60
2017-09-03T19:22:49.696Z,15.60
2017-09-03T19:25:17.996Z,15.70
2017-09-03T19:27:46.313Z,15.80
2017-09-03T19:30:14.641Z,15.90
2017-09-03T19:32:42.933Z,15.80
2017-09-03T19:35:11.332Z,15.70
2017-09-03T19:37:39.663Z,15.60
2017-09-03T19:40:07.996Z,15.60
2017-09-03T19:42:36.280Z,15.50
2017-09-03T19:45:04.678Z,15.40
2017-09-03T19:47:32.971Z,15.30
2017-09-03T19:50:23.251Z,15.30
2017-09-03T19:52:51.878Z,15.20
2017-09-03T19:55:38.937Z,15.20
2017-09-03T19:58:07.231Z,15.10
2017-09-03T20:00:35.556Z,15.10
2017-09-03T20:03:03.864Z,15.10
2017-09-03T20:05:40.659Z,15.10
2017-09-03T20:08:19.592Z,15.10
2017-09-03T20:10:52.606Z,15.10
2017-09-03T20:13:20.972Z,15.10
2017-09-03T20:15:49.332Z,15.00
2017-09-03T20:18:18.852Z,15.00
2017-09-03T20:20:57.616Z,15.00
2017-09-03T20:23:26.772Z,15.00
2017-09-03T20:26:01.790Z,15.00
2017-09-03T20:28:30.108Z,15.00
2017-09-03T20:30:58.471Z,14.90
2017-09-03T20:33:28.050Z,14.90
2017-09-03T20:35:56.395Z,14.90
2017-09-03T20:38:24.770Z,14.80
2017-09-03T20:40:53.140Z,14.70
2017-09-03T20:43:21.627Z,14.50
2017-09-03T20:45:53.704Z,14.40
2017-09-03T20:48:22.068Z,14.20
2017-09-03T20:50:50.397Z,14.20
2017-09-03T20:53:19.473Z,14.20
2017-09-03T20:55:48.666Z,14.10
2017-09-03T20:58:17.010Z,14.20
2017-09-03T21:00:47.434Z,14.20
2017-09-03T21:03:20.876Z,14.20
2017-09-03T21:05:49.229Z,14.30
2017-09-03T21:08:17.633Z,14.30
2017-09-03T21:10:49.056Z,14.30
2017-09-03T21:13:17.524Z,14.30
2017-09-03T21:15:47.598Z,14.30
2017-09-03T21:18:17.003Z,14.20
2017-09-03T21:20:45.461Z,14.20
2017-09-03T21:23:13.751Z,14.20
2017-09-03T21:25:42.104Z,14.20
2017-09-03T21:28:10.398Z,14.20
2017-09-03T21:30:40.699Z,14.10
2017-09-03T21:33:09.083Z,14.10
2017-09-03T21:35:37.544Z,14.10
2017-09-03T21:38:06.139Z,14.10
2017-09-03T21:40:34.573Z,14.10
2017-09-03T21:43:03.152Z,14.00
2017-09-03T21:45:31.471Z,14.00
2017-09-03T21:47:59.789Z,13.90
2017-09-03T21:50:48.081Z,13.90
2017-09-03T21:53:17.414Z,13.80
2017-09-03T21:55:47.498Z,13.80
2017-09-03T21:58:15.840Z,13.80
2017-09-03T22:00:44.263Z,13.80
2017-09-03T22:03:12.555Z,13.80
2017-09-03T22:05:40.861Z,13.80
2017-09-03T22:08:09.976Z,13.80
2017-09-03T22:10:38.300Z,13.70
2017-09-03T22:13:06.623Z,13.70
2017-09-03T22:15:34.931Z,13.80
2017-09-03T22:18:03.249Z,13.80
2017-09-03T22:20:31.584Z,13.80
2017-09-03T22:22:59.906Z,13.80
2017-09-03T22:25:28.280Z,13.80
2017-09-03T22:27:56.571Z,13.70
2017-09-03T22:30:24.894Z,13.70
2017-09-03T22:32:53.244Z,13.60
2017-09-03T22:35:21.579Z,13.60
2017-09-03T22:37:49.895Z,13.60
2017-09-03T22:40:18.779Z,13.50
2017-09-03T22:42:47.564Z,13.50
2017-09-03T22:45:15.945Z,13.50
2017-09-03T22:47:44.379Z,13.50
2017-09-03T22:50:12.723Z,13.50
2017-09-03T22:52:41.019Z,13.50
2017-09-03T22:55:09.359Z,13.40
2017-09-03T22:57:37.643Z,13.40
2017-09-03T23:00:11.570Z,13.30
2017-09-03T23:02:39.891Z,13.30
2017-09-03T23:05:08.204Z,13.30
2017-09-03T23:07:36.524Z,13.30
2017-09-03T23:10:04.820Z,13.20
2017-09-03T23:12:33.186Z,13.30
2017-09-03T23:15:01.486Z,13.20
2017-09-03T23:17:30.543Z,13.20
2017-09-03T23:19:58.866Z,13.20
2017-09-03T23:22:35.767Z,13.20
2017-09-03T23:25:05.140Z,13.20
2017-09-03T23:27:33.479Z,13.10
2017-09-03T23:30:01.795Z,13.10
2017-09-03T23:32:30.102Z,13.10
2017-09-03T23:34:58.412Z,13.10
2017-09-03T23:37:26.732Z,13.10
2017-09-03T23:39:55.067Z,13.00
2017-09-03T23:42:23.393Z,13.00
2017-09-03T23:45:04.103Z,12.90
2017-09-03T23:47:32.443Z,12.90
2017-09-03T23:50:00.944Z,12.90
2017-09-03T23:52:29.243Z,12.90
2017-09-03T23:54:57.571Z,12.90
2017-09-03T23:57:29.141Z,12.90
2017-09-03T23:59:57.460Z,12.80
